sensor_id;sensor_type;location;lat;lon;timestamp;P1;durP1;ratioP1;P2;durP2;ratioP2
16727;SDS011;8482;54.396;18.590;2022-09-13T00:00:45;6.95;;;3.88;;
16727;SDS011;8482;54.396;18.590;2022-09-13T00:03:15;6.15;;;3.50;;
16727;SDS011;8482;54.396;18.590;2022-09-13T00:05:41;6.38;;;3.78;;
16727;SDS011;8482;54.396;18.590;2022-09-13T00:08:07;6.63;;;3.60;;
16727;SDS011;8482;54.396;18.590;2022-09-13T00:10:35;6.50;;;3.80;;
16727;SDS011;8482;54.396;18.590;2022-09-13T00:13:04;6.68;;;3.72;;
16727;SDS011;8482;54.396;18.590;2022-09-13T00:15:32;6.30;;;3.50;;
16727;SDS011;8482;54.396;18.590;2022-09-13T00:18:00;6.88;;;3.60;;
16727;SDS011;8482;54.396;18.590;2022-09-13T00:20:26;6.30;;;3.13;;
16727;SDS011;8482;54.396;18.590;2022-09-13T00:22:52;6.10;;;3.30;;
16727;SDS011;8482;54.396;18.590;2022-09-13T00:25:18;6.25;;;3.38;;
16727;SDS011;8482;54.396;18.590;2022-09-13T00:27:44;6.85;;;3.45;;
16727;SDS011;8482;54.396;18.590;2022-09-13T00:30:11;5.50;;;3.08;;
16727;SDS011;8482;54.396;18.590;2022-09-13T00:32:38;6.97;;;3.47;;
16727;SDS011;8482;54.396;18.590;2022-09-13T00:35:04;6.75;;;3.42;;
16727;SDS011;8482;54.396;18.590;2022-09-13T00:37:31;6.22;;;3.20;;
16727;SDS011;8482;54.396;18.590;2022-09-13T00:39:58;5.72;;;3.17;;
16727;SDS011;8482;54.396;18.590;2022-09-13T00:42:26;6.20;;;3.20;;
16727;SDS011;8482;54.396;18.590;2022-09-13T00:44:59;5.45;;;2.90;;
16727;SDS011;8482;54.396;18.590;2022-09-13T00:47:37;6.63;;;3.38;;
16727;SDS011;8482;54.396;18.590;2022-09-13T00:58:25;6.95;;;3.70;;
16727;SDS011;8482;54.396;18.590;2022-09-13T01:00:56;8.45;;;3.60;;
16727;SDS011;8482;54.396;18.590;2022-09-13T01:03:24;6.95;;;3.50;;
16727;SDS011;8482;54.396;18.590;2022-09-13T01:06:09;6.15;;;3.72;;
16727;SDS011;8482;54.396;18.590;2022-09-13T01:08:44;7.38;;;3.70;;
16727;SDS011;8482;54.396;18.590;2022-09-13T01:11:23;7.28;;;3.85;;
16727;SDS011;8482;54.396;18.590;2022-09-13T01:14:00;7.57;;;3.90;;
16727;SDS011;8482;54.396;18.590;2022-09-13T01:16:27;6.82;;;3.40;;
16727;SDS011;8482;54.396;18.590;2022-09-13T01:18:53;6.05;;;3.40;;
16727;SDS011;8482;54.396;18.590;2022-09-13T01:30:42;5.05;;;2.75;;
16727;SDS011;8482;54.396;18.590;2022-09-13T01:33:47;5.70;;;3.08;;
16727;SDS011;8482;54.396;18.590;2022-09-13T01:36:33;5.70;;;3.20;;
16727;SDS011;8482;54.396;18.590;2022-09-13T01:39:17;5.95;;;3.67;;
16727;SDS011;8482;54.396;18.590;2022-09-13T01:42:07;6.78;;;3.72;;
16727;SDS011;8482;54.396;18.590;2022-09-13T01:48:00;6.10;;;3.72;;
16727;SDS011;8482;54.396;18.590;2022-09-13T01:50:46;6.15;;;3.50;;
16727;SDS011;8482;54.396;18.590;2022-09-13T01:53:42;6.70;;;3.40;;
16727;SDS011;8482;54.396;18.590;2022-09-13T01:56:25;5.80;;;3.30;;
16727;SDS011;8482;54.396;18.590;2022-09-13T01:59:13;5.35;;;3.03;;
16727;SDS011;8482;54.396;18.590;2022-09-13T02:02:05;6.25;;;3.30;;
16727;SDS011;8482;54.396;18.590;2022-09-13T02:04:40;5.30;;;3.15;;
16727;SDS011;8482;54.396;18.590;2022-09-13T02:07:36;5.57;;;3.05;;
16727;SDS011;8482;54.396;18.590;2022-09-13T02:10:09;5.97;;;3.25;;
16727;SDS011;8482;54.396;18.590;2022-09-13T02:12:51;5.07;;;2.85;;
16727;SDS011;8482;54.396;18.590;2022-09-13T02:15:22;5.32;;;2.83;;
16727;SDS011;8482;54.396;18.590;2022-09-13T02:18:08;5.85;;;3.17;;
16727;SDS011;8482;54.396;18.590;2022-09-13T02:20:42;5.57;;;2.90;;
16727;SDS011;8482;54.396;18.590;2022-09-13T02:23:13;5.97;;;3.03;;
16727;SDS011;8482;54.396;18.590;2022-09-13T02:25:50;5.60;;;3.05;;
16727;SDS011;8482;54.396;18.590;2022-09-13T02:28:20;6.07;;;3.00;;
16727;SDS011;8482;54.396;18.590;2022-09-13T02:31:00;5.70;;;3.10;;
16727;SDS011;8482;54.396;18.590;2022-09-13T02:33:35;5.53;;;2.97;;
16727;SDS011;8482;54.396;18.590;2022-09-13T02:36:09;5.60;;;2.95;;
16727;SDS011;8482;54.396;18.590;2022-09-13T02:38:49;5.25;;;2.63;;
16727;SDS011;8482;54.396;18.590;2022-09-13T02:41:38;5.97;;;3.20;;
16727;SDS011;8482;54.396;18.590;2022-09-13T02:53:04;3.95;;;2.30;;
16727;SDS011;8482;54.396;18.590;2022-09-13T02:59:20;4.63;;;2.70;;
16727;SDS011;8482;54.396;18.590;2022-09-13T03:01:50;4.32;;;2.72;;
16727;SDS011;8482;54.396;18.590;2022-09-13T03:04:39;4.78;;;2.42;;
16727;SDS011;8482;54.396;18.590;2022-09-13T03:07:09;4.63;;;2.60;;
16727;SDS011;8482;54.396;18.590;2022-09-13T03:09:41;5.00;;;2.58;;
16727;SDS011;8482;54.396;18.590;2022-09-13T03:23:26;4.13;;;2.30;;
16727;SDS011;8482;54.396;18.590;2022-09-13T03:32:15;5.00;;;3.20;;
16727;SDS011;8482;54.396;18.590;2022-09-13T03:38:18;4.32;;;2.40;;
16727;SDS011;8482;54.396;18.590;2022-09-13T03:40:59;3.42;;;2.10;;
16727;SDS011;8482;54.396;18.590;2022-09-13T03:43:40;4.03;;;2.50;;
16727;SDS011;8482;54.396;18.590;2022-09-13T03:46:17;4.53;;;2.63;;
16727;SDS011;8482;54.396;18.590;2022-09-13T03:48:48;4.22;;;2.28;;
16727;SDS011;8482;54.396;18.590;2022-09-13T03:51:16;5.50;;;2.42;;
16727;SDS011;8482;54.396;18.590;2022-09-13T03:53:46;4.53;;;2.58;;
16727;SDS011;8482;54.396;18.590;2022-09-13T03:56:20;5.20;;;2.40;;
16727;SDS011;8482;54.396;18.590;2022-09-13T03:58:47;4.35;;;2.22;;
16727;SDS011;8482;54.396;18.590;2022-09-13T04:01:13;6.63;;;2.50;;
16727;SDS011;8482;54.396;18.590;2022-09-13T04:03:46;4.60;;;2.50;;
16727;SDS011;8482;54.396;18.590;2022-09-13T04:06:13;3.30;;;2.10;;
16727;SDS011;8482;54.396;18.590;2022-09-13T04:08:38;3.50;;;2.20;;
16727;SDS011;8482;54.396;18.590;2022-09-13T04:11:04;3.95;;;2.10;;
16727;SDS011;8482;54.396;18.590;2022-09-13T04:13:31;3.78;;;2.13;;
16727;SDS011;8482;54.396;18.590;2022-09-13T04:16:00;4.57;;;2.38;;
16727;SDS011;8482;54.396;18.590;2022-09-13T04:18:28;3.80;;;2.13;;
16727;SDS011;8482;54.396;18.590;2022-09-13T04:20:56;3.35;;;2.15;;
16727;SDS011;8482;54.396;18.590;2022-09-13T04:23:24;3.40;;;2.03;;
16727;SDS011;8482;54.396;18.590;2022-09-13T04:25:52;4.22;;;2.20;;
16727;SDS011;8482;54.396;18.590;2022-09-13T04:28:18;2.58;;;1.77;;
16727;SDS011;8482;54.396;18.590;2022-09-13T04:30:47;3.33;;;1.90;;
16727;SDS011;8482;54.396;18.590;2022-09-13T04:33:14;4.07;;;2.03;;
16727;SDS011;8482;54.396;18.590;2022-09-13T04:35:41;3.50;;;2.00;;
16727;SDS011;8482;54.396;18.590;2022-09-13T04:38:07;3.80;;;1.75;;
16727;SDS011;8482;54.396;18.590;2022-09-13T04:40:34;5.63;;;2.30;;
16727;SDS011;8482;54.396;18.590;2022-09-13T04:43:01;3.92;;;2.33;;
16727;SDS011;8482;54.396;18.590;2022-09-13T04:45:27;3.72;;;2.33;;
16727;SDS011;8482;54.396;18.590;2022-09-13T04:47:53;4.57;;;2.20;;
16727;SDS011;8482;54.396;18.590;2022-09-13T04:50:20;3.60;;;1.83;;
16727;SDS011;8482;54.396;18.590;2022-09-13T04:52:48;4.50;;;2.20;;
16727;SDS011;8482;54.396;18.590;2022-09-13T04:55:14;4.35;;;2.20;;
16727;SDS011;8482;54.396;18.590;2022-09-13T04:57:40;5.00;;;2.20;;
16727;SDS011;8482;54.396;18.590;2022-09-13T05:00:07;4.13;;;2.00;;
16727;SDS011;8482;54.396;18.590;2022-09-13T05:02:34;2.90;;;1.75;;
16727;SDS011;8482;54.396;18.590;2022-09-13T05:05:00;3.25;;;1.80;;
16727;SDS011;8482;54.396;18.590;2022-09-13T05:07:26;3.33;;;1.98;;
16727;SDS011;8482;54.396;18.590;2022-09-13T05:09:51;3.55;;;1.70;;
16727;SDS011;8482;54.396;18.590;2022-09-13T05:12:17;3.47;;;2.10;;
16727;SDS011;8482;54.396;18.590;2022-09-13T05:14:43;4.60;;;2.00;;
16727;SDS011;8482;54.396;18.590;2022-09-13T05:17:09;3.40;;;1.92;;
16727;SDS011;8482;54.396;18.590;2022-09-13T05:19:35;3.20;;;1.95;;
16727;SDS011;8482;54.396;18.590;2022-09-13T05:22:01;3.55;;;1.95;;
16727;SDS011;8482;54.396;18.590;2022-09-13T05:24:27;3.38;;;1.98;;
16727;SDS011;8482;54.396;18.590;2022-09-13T05:26:53;3.40;;;1.90;;
16727;SDS011;8482;54.396;18.590;2022-09-13T05:29:18;3.03;;;1.80;;
16727;SDS011;8482;54.396;18.590;2022-09-13T05:31:44;2.90;;;1.75;;
16727;SDS011;8482;54.396;18.590;2022-09-13T05:34:11;2.72;;;1.73;;
16727;SDS011;8482;54.396;18.590;2022-09-13T05:36:41;3.92;;;1.77;;
16727;SDS011;8482;54.396;18.590;2022-09-13T05:39:12;3.72;;;1.75;;
16727;SDS011;8482;54.396;18.590;2022-09-13T05:41:41;2.50;;;1.70;;
16727;SDS011;8482;54.396;18.590;2022-09-13T05:44:08;2.63;;;1.63;;
16727;SDS011;8482;54.396;18.590;2022-09-13T05:46:34;3.72;;;1.98;;
16727;SDS011;8482;54.396;18.590;2022-09-13T05:49:01;3.65;;;1.90;;
16727;SDS011;8482;54.396;18.590;2022-09-13T05:51:26;2.92;;;1.73;;
16727;SDS011;8482;54.396;18.590;2022-09-13T05:53:53;3.33;;;1.80;;
16727;SDS011;8482;54.396;18.590;2022-09-13T05:56:23;3.20;;;1.73;;
16727;SDS011;8482;54.396;18.590;2022-09-13T05:58:53;3.40;;;1.85;;
16727;SDS011;8482;54.396;18.590;2022-09-13T06:01:20;3.70;;;1.70;;
16727;SDS011;8482;54.396;18.590;2022-09-13T06:03:50;3.40;;;1.70;;
16727;SDS011;8482;54.396;18.590;2022-09-13T06:06:18;2.80;;;1.60;;
16727;SDS011;8482;54.396;18.590;2022-09-13T06:08:45;2.38;;;1.40;;
16727;SDS011;8482;54.396;18.590;2022-09-13T06:11:12;2.90;;;1.70;;
16727;SDS011;8482;54.396;18.590;2022-09-13T06:13:39;2.60;;;1.50;;
16727;SDS011;8482;54.396;18.590;2022-09-13T06:16:10;3.13;;;1.50;;
16727;SDS011;8482;54.396;18.590;2022-09-13T06:18:37;3.45;;;2.17;;
16727;SDS011;8482;54.396;18.590;2022-09-13T06:21:13;2.83;;;1.40;;
16727;SDS011;8482;54.396;18.590;2022-09-13T06:23:46;1.77;;;1.30;;
16727;SDS011;8482;54.396;18.590;2022-09-13T06:26:15;2.65;;;1.65;;
16727;SDS011;8482;54.396;18.590;2022-09-13T06:28:47;4.97;;;1.60;;
16727;SDS011;8482;54.396;18.590;2022-09-13T06:31:20;2.28;;;1.30;;
16727;SDS011;8482;54.396;18.590;2022-09-13T06:33:49;3.67;;;1.90;;
16727;SDS011;8482;54.396;18.590;2022-09-13T06:36:21;2.83;;;1.60;;
16727;SDS011;8482;54.396;18.590;2022-09-13T06:38:47;2.47;;;1.40;;
16727;SDS011;8482;54.396;18.590;2022-09-13T06:41:15;2.90;;;1.58;;
16727;SDS011;8482;54.396;18.590;2022-09-13T06:43:44;2.70;;;1.55;;
16727;SDS011;8482;54.396;18.590;2022-09-13T06:46:12;2.65;;;1.67;;
16727;SDS011;8482;54.396;18.590;2022-09-13T06:48:42;3.00;;;1.45;;
16727;SDS011;8482;54.396;18.590;2022-09-13T06:51:12;3.92;;;1.30;;
16727;SDS011;8482;54.396;18.590;2022-09-13T06:53:44;2.15;;;1.30;;
16727;SDS011;8482;54.396;18.590;2022-09-13T06:56:19;2.95;;;1.45;;
16727;SDS011;8482;54.396;18.590;2022-09-13T06:58:49;3.33;;;1.50;;
16727;SDS011;8482;54.396;18.590;2022-09-13T07:01:23;1.95;;;1.27;;
16727;SDS011;8482;54.396;18.590;2022-09-13T07:03:57;3.05;;;1.60;;
16727;SDS011;8482;54.396;18.590;2022-09-13T07:06:31;2.25;;;1.38;;
16727;SDS011;8482;54.396;18.590;2022-09-13T07:09:01;2.55;;;1.65;;
16727;SDS011;8482;54.396;18.590;2022-09-13T07:11:31;3.35;;;1.50;;
16727;SDS011;8482;54.396;18.590;2022-09-13T07:14:00;2.65;;;1.50;;
16727;SDS011;8482;54.396;18.590;2022-09-13T07:16:27;4.00;;;1.60;;
16727;SDS011;8482;54.396;18.590;2022-09-13T07:21:25;2.30;;;1.50;;
16727;SDS011;8482;54.396;18.590;2022-09-13T07:23:53;2.55;;;1.48;;
16727;SDS011;8482;54.396;18.590;2022-09-13T07:26:20;1.92;;;1.50;;
16727;SDS011;8482;54.396;18.590;2022-09-13T07:28:48;3.60;;;1.70;;
16727;SDS011;8482;54.396;18.590;2022-09-13T07:31:18;2.30;;;1.42;;
16727;SDS011;8482;54.396;18.590;2022-09-13T07:33:56;2.95;;;1.70;;
16727;SDS011;8482;54.396;18.590;2022-09-13T07:36:25;4.43;;;1.83;;
16727;SDS011;8482;54.396;18.590;2022-09-13T07:38:53;3.00;;;1.55;;
16727;SDS011;8482;54.396;18.590;2022-09-13T07:41:20;2.60;;;1.70;;
16727;SDS011;8482;54.396;18.590;2022-09-13T07:43:48;2.70;;;1.60;;
16727;SDS011;8482;54.396;18.590;2022-09-13T07:46:16;2.70;;;1.48;;
16727;SDS011;8482;54.396;18.590;2022-09-13T07:48:50;3.05;;;1.55;;
16727;SDS011;8482;54.396;18.590;2022-09-13T07:51:19;2.63;;;1.55;;
16727;SDS011;8482;54.396;18.590;2022-09-13T07:53:49;2.95;;;1.63;;
16727;SDS011;8482;54.396;18.590;2022-09-13T07:56:18;3.08;;;1.67;;
16727;SDS011;8482;54.396;18.590;2022-09-13T07:58:47;3.83;;;1.90;;
16727;SDS011;8482;54.396;18.590;2022-09-13T08:01:19;3.50;;;1.60;;
16727;SDS011;8482;54.396;18.590;2022-09-13T08:04:05;3.67;;;1.70;;
16727;SDS011;8482;54.396;18.590;2022-09-13T08:06:35;2.83;;;1.60;;
16727;SDS011;8482;54.396;18.590;2022-09-13T08:09:03;3.20;;;1.80;;
16727;SDS011;8482;54.396;18.590;2022-09-13T08:11:36;3.58;;;1.70;;
16727;SDS011;8482;54.396;18.590;2022-09-13T08:14:05;2.38;;;1.63;;
16727;SDS011;8482;54.396;18.590;2022-09-13T08:16:34;2.08;;;1.50;;
16727;SDS011;8482;54.396;18.590;2022-09-13T08:19:01;3.03;;;1.83;;
16727;SDS011;8482;54.396;18.590;2022-09-13T08:21:33;2.58;;;1.52;;
16727;SDS011;8482;54.396;18.590;2022-09-13T08:24:02;3.42;;;1.90;;
16727;SDS011;8482;54.396;18.590;2022-09-13T08:26:30;3.40;;;1.80;;
16727;SDS011;8482;54.396;18.590;2022-09-13T08:28:59;2.50;;;1.58;;
16727;SDS011;8482;54.396;18.590;2022-09-13T08:31:28;3.60;;;1.88;;
16727;SDS011;8482;54.396;18.590;2022-09-13T08:33:55;3.63;;;1.80;;
16727;SDS011;8482;54.396;18.590;2022-09-13T08:36:23;3.45;;;1.70;;
16727;SDS011;8482;54.396;18.590;2022-09-13T08:38:52;2.30;;;1.60;;
16727;SDS011;8482;54.396;18.590;2022-09-13T08:44:13;3.10;;;1.67;;
16727;SDS011;8482;54.396;18.590;2022-09-13T08:50:26;2.95;;;1.88;;
16727;SDS011;8482;54.396;18.590;2022-09-13T08:55:52;2.45;;;1.65;;
16727;SDS011;8482;54.396;18.590;2022-09-13T09:06:54;3.28;;;1.92;;
16727;SDS011;8482;54.396;18.590;2022-09-13T09:10:11;3.28;;;2.03;;
16727;SDS011;8482;54.396;18.590;2022-09-13T09:12:49;3.58;;;1.90;;
16727;SDS011;8482;54.396;18.590;2022-09-13T09:18:02;3.65;;;2.38;;
16727;SDS011;8482;54.396;18.590;2022-09-13T09:20:43;4.60;;;2.47;;
16727;SDS011;8482;54.396;18.590;2022-09-13T09:23:35;3.22;;;2.40;;
16727;SDS011;8482;54.396;18.590;2022-09-13T09:28:49;5.45;;;2.90;;
16727;SDS011;8482;54.396;18.590;2022-09-13T09:39:36;4.22;;;2.42;;
16727;SDS011;8482;54.396;18.590;2022-09-13T09:42:09;3.60;;;2.47;;
16727;SDS011;8482;54.396;18.590;2022-09-13T09:44:51;4.05;;;2.47;;
16727;SDS011;8482;54.396;18.590;2022-09-13T09:47:27;4.47;;;2.70;;
16727;SDS011;8482;54.396;18.590;2022-09-13T09:50:18;4.35;;;2.58;;
16727;SDS011;8482;54.396;18.590;2022-09-13T09:53:09;3.72;;;2.47;;
16727;SDS011;8482;54.396;18.590;2022-09-13T09:55:45;5.45;;;2.92;;
16727;SDS011;8482;54.396;18.590;2022-09-13T09:58:39;5.05;;;2.65;;
16727;SDS011;8482;54.396;18.590;2022-09-13T10:03:52;4.65;;;2.35;;
16727;SDS011;8482;54.396;18.590;2022-09-13T10:06:28;4.78;;;3.03;;
16727;SDS011;8482;54.396;18.590;2022-09-13T10:08:57;4.68;;;2.45;;
16727;SDS011;8482;54.396;18.590;2022-09-13T10:14:34;5.30;;;2.95;;
16727;SDS011;8482;54.396;18.590;2022-09-13T10:17:25;5.18;;;2.80;;
16727;SDS011;8482;54.396;18.590;2022-09-13T10:19:56;4.25;;;2.67;;
16727;SDS011;8482;54.396;18.590;2022-09-13T10:22:26;5.28;;;3.00;;
16727;SDS011;8482;54.396;18.590;2022-09-13T10:24:54;5.38;;;3.40;;
16727;SDS011;8482;54.396;18.590;2022-09-13T10:29:52;5.10;;;3.17;;
16727;SDS011;8482;54.396;18.590;2022-09-13T10:32:24;4.88;;;3.10;;
16727;SDS011;8482;54.396;18.590;2022-09-13T10:34:52;5.65;;;3.58;;
16727;SDS011;8482;54.396;18.590;2022-09-13T10:37:27;6.35;;;3.70;;
16727;SDS011;8482;54.396;18.590;2022-09-13T10:42:41;5.43;;;3.05;;
16727;SDS011;8482;54.396;18.590;2022-09-13T10:45:21;5.07;;;3.30;;
16727;SDS011;8482;54.396;18.590;2022-09-13T10:47:58;5.50;;;3.83;;
16727;SDS011;8482;54.396;18.590;2022-09-13T10:50:37;6.13;;;3.78;;
16727;SDS011;8482;54.396;18.590;2022-09-13T10:53:02;5.53;;;4.05;;
16727;SDS011;8482;54.396;18.590;2022-09-13T10:55:52;6.07;;;3.92;;
16727;SDS011;8482;54.396;18.590;2022-09-13T10:58:19;6.80;;;4.22;;
16727;SDS011;8482;54.396;18.590;2022-09-13T11:07:06;5.90;;;4.25;;
16727;SDS011;8482;54.396;18.590;2022-09-13T11:27:25;5.65;;;3.65;;
16727;SDS011;8482;54.396;18.590;2022-09-13T11:30:30;5.65;;;3.85;;
16727;SDS011;8482;54.396;18.590;2022-09-13T11:39:02;6.07;;;3.75;;
16727;SDS011;8482;54.396;18.590;2022-09-13T11:41:58;6.00;;;3.60;;
16727;SDS011;8482;54.396;18.590;2022-09-13T11:56:33;5.45;;;3.42;;
16727;SDS011;8482;54.396;18.590;2022-09-13T11:59:17;6.05;;;3.80;;
16727;SDS011;8482;54.396;18.590;2022-09-13T12:02:04;6.90;;;3.53;;
16727;SDS011;8482;54.396;18.590;2022-09-13T12:04:56;6.03;;;3.53;;
16727;SDS011;8482;54.396;18.590;2022-09-13T12:07:46;6.20;;;4.10;;
16727;SDS011;8482;54.396;18.590;2022-09-13T12:10:27;6.28;;;4.10;;
16727;SDS011;8482;54.396;18.590;2022-09-13T12:13:15;5.68;;;3.05;;
16727;SDS011;8482;54.396;18.590;2022-09-13T12:15:54;5.35;;;3.55;;
16727;SDS011;8482;54.396;18.590;2022-09-13T12:18:37;5.55;;;3.42;;
16727;SDS011;8482;54.396;18.590;2022-09-13T12:21:15;4.80;;;3.25;;
16727;SDS011;8482;54.396;18.590;2022-09-13T12:23:56;4.55;;;2.85;;
16727;SDS011;8482;54.396;18.590;2022-09-13T12:27:03;6.22;;;3.90;;
16727;SDS011;8482;54.396;18.590;2022-09-13T12:29:55;4.93;;;3.38;;
16727;SDS011;8482;54.396;18.590;2022-09-13T12:32:38;6.57;;;3.90;;
16727;SDS011;8482;54.396;18.590;2022-09-13T12:35:06;6.45;;;3.75;;
16727;SDS011;8482;54.396;18.590;2022-09-13T12:41:03;5.30;;;3.35;;
16727;SDS011;8482;54.396;18.590;2022-09-13T12:52:52;5.65;;;3.25;;
16727;SDS011;8482;54.396;18.590;2022-09-13T13:01:51;4.53;;;2.75;;
16727;SDS011;8482;54.396;18.590;2022-09-13T13:04:19;4.18;;;2.70;;
16727;SDS011;8482;54.396;18.590;2022-09-13T13:06:59;4.80;;;3.03;;
16727;SDS011;8482;54.396;18.590;2022-09-13T13:12:09;4.80;;;3.13;;
16727;SDS011;8482;54.396;18.590;2022-09-13T13:14:50;5.35;;;3.22;;
16727;SDS011;8482;54.396;18.590;2022-09-13T13:20:46;4.85;;;2.63;;
16727;SDS011;8482;54.396;18.590;2022-09-13T13:26:02;5.22;;;3.30;;
16727;SDS011;8482;54.396;18.590;2022-09-13T13:39:04;5.40;;;3.13;;
16727;SDS011;8482;54.396;18.590;2022-09-13T14:00:34;4.72;;;3.03;;
16727;SDS011;8482;54.396;18.590;2022-09-13T14:03:30;4.70;;;3.20;;
16727;SDS011;8482;54.396;18.590;2022-09-13T14:06:48;5.38;;;3.30;;
16727;SDS011;8482;54.396;18.590;2022-09-13T14:15:22;4.88;;;3.38;;
16727;SDS011;8482;54.396;18.590;2022-09-13T14:18:49;5.15;;;3.22;;
16727;SDS011;8482;54.396;18.590;2022-09-13T14:21:37;5.13;;;3.42;;
16727;SDS011;8482;54.396;18.590;2022-09-13T14:24:06;5.55;;;3.60;;
16727;SDS011;8482;54.396;18.590;2022-09-13T14:26:47;5.30;;;3.33;;
16727;SDS011;8482;54.396;18.590;2022-09-13T14:29:18;5.70;;;3.67;;
16727;SDS011;8482;54.396;18.590;2022-09-13T14:31:51;6.47;;;3.90;;
16727;SDS011;8482;54.396;18.590;2022-09-13T14:34:29;5.55;;;3.55;;
16727;SDS011;8482;54.396;18.590;2022-09-13T14:37:00;5.65;;;4.00;;
16727;SDS011;8482;54.396;18.590;2022-09-13T14:39:32;6.43;;;3.80;;
16727;SDS011;8482;54.396;18.590;2022-09-13T14:42:05;5.32;;;3.33;;
16727;SDS011;8482;54.396;18.590;2022-09-13T14:44:42;5.72;;;3.53;;
16727;SDS011;8482;54.396;18.590;2022-09-13T14:50:17;5.60;;;3.47;;
16727;SDS011;8482;54.396;18.590;2022-09-13T14:52:57;4.45;;;2.97;;
16727;SDS011;8482;54.396;18.590;2022-09-13T14:55:39;5.55;;;3.55;;
16727;SDS011;8482;54.396;18.590;2022-09-13T14:58:16;5.03;;;3.13;;
16727;SDS011;8482;54.396;18.590;2022-09-13T15:01:19;4.53;;;3.22;;
16727;SDS011;8482;54.396;18.590;2022-09-13T15:03:53;4.90;;;3.05;;
16727;SDS011;8482;54.396;18.590;2022-09-13T15:06:27;5.13;;;3.20;;
16727;SDS011;8482;54.396;18.590;2022-09-13T15:09:15;5.47;;;3.50;;
16727;SDS011;8482;54.396;18.590;2022-09-13T15:14:31;4.93;;;3.40;;
16727;SDS011;8482;54.396;18.590;2022-09-13T15:19:36;5.18;;;3.25;;
16727;SDS011;8482;54.396;18.590;2022-09-13T15:24:51;5.90;;;3.60;;
16727;SDS011;8482;54.396;18.590;2022-09-13T15:29:52;6.28;;;3.72;;
16727;SDS011;8482;54.396;18.590;2022-09-13T15:32:38;6.43;;;3.47;;
16727;SDS011;8482;54.396;18.590;2022-09-13T15:35:27;5.68;;;3.65;;
16727;SDS011;8482;54.396;18.590;2022-09-13T15:38:00;5.07;;;3.63;;
16727;SDS011;8482;54.396;18.590;2022-09-13T15:43:42;6.32;;;3.90;;
16727;SDS011;8482;54.396;18.590;2022-09-13T15:46:10;5.28;;;3.58;;
16727;SDS011;8482;54.396;18.590;2022-09-13T15:48:40;6.90;;;4.03;;
16727;SDS011;8482;54.396;18.590;2022-09-13T15:51:16;5.55;;;3.90;;
16727;SDS011;8482;54.396;18.590;2022-09-13T15:53:43;5.63;;;3.92;;
16727;SDS011;8482;54.396;18.590;2022-09-13T15:56:21;5.45;;;3.58;;
16727;SDS011;8482;54.396;18.590;2022-09-13T15:58:57;5.70;;;4.10;;
16727;SDS011;8482;54.396;18.590;2022-09-13T16:01:23;5.95;;;3.75;;
16727;SDS011;8482;54.396;18.590;2022-09-13T16:03:49;5.43;;;3.70;;
16727;SDS011;8482;54.396;18.590;2022-09-13T16:06:15;5.93;;;3.88;;
16727;SDS011;8482;54.396;18.590;2022-09-13T16:08:40;5.85;;;3.72;;
16727;SDS011;8482;54.396;18.590;2022-09-13T16:11:06;5.97;;;3.70;;
16727;SDS011;8482;54.396;18.590;2022-09-13T16:13:32;5.88;;;3.97;;
16727;SDS011;8482;54.396;18.590;2022-09-13T16:16:00;6.22;;;3.63;;
16727;SDS011;8482;54.396;18.590;2022-09-13T16:18:27;5.43;;;3.53;;
16727;SDS011;8482;54.396;18.590;2022-09-13T16:20:52;5.57;;;3.72;;
16727;SDS011;8482;54.396;18.590;2022-09-13T16:23:18;5.88;;;3.97;;
16727;SDS011;8482;54.396;18.590;2022-09-13T16:25:44;5.70;;;3.70;;
16727;SDS011;8482;54.396;18.590;2022-09-13T16:28:16;6.80;;;4.30;;
16727;SDS011;8482;54.396;18.590;2022-09-13T16:30:45;5.25;;;3.75;;
16727;SDS011;8482;54.396;18.590;2022-09-13T16:33:12;6.25;;;4.18;;
16727;SDS011;8482;54.396;18.590;2022-09-13T16:35:38;7.28;;;4.10;;
16727;SDS011;8482;54.396;18.590;2022-09-13T16:38:04;4.82;;;3.33;;
16727;SDS011;8482;54.396;18.590;2022-09-13T16:40:29;7.35;;;4.32;;
16727;SDS011;8482;54.396;18.590;2022-09-13T16:42:56;6.20;;;3.83;;
16727;SDS011;8482;54.396;18.590;2022-09-13T16:45:22;5.80;;;4.13;;
16727;SDS011;8482;54.396;18.590;2022-09-13T16:47:47;6.00;;;4.13;;
16727;SDS011;8482;54.396;18.590;2022-09-13T16:50:14;6.28;;;4.50;;
16727;SDS011;8482;54.396;18.590;2022-09-13T16:52:41;6.90;;;4.15;;
16727;SDS011;8482;54.396;18.590;2022-09-13T16:55:07;6.45;;;4.63;;
16727;SDS011;8482;54.396;18.590;2022-09-13T16:57:34;6.57;;;4.50;;
16727;SDS011;8482;54.396;18.590;2022-09-13T16:59:59;7.00;;;4.40;;
16727;SDS011;8482;54.396;18.590;2022-09-13T17:02:28;6.47;;;4.47;;
16727;SDS011;8482;54.396;18.590;2022-09-13T17:04:54;7.05;;;4.50;;
16727;SDS011;8482;54.396;18.590;2022-09-13T17:07:19;6.65;;;4.35;;
16727;SDS011;8482;54.396;18.590;2022-09-13T17:09:45;5.95;;;4.15;;
16727;SDS011;8482;54.396;18.590;2022-09-13T17:12:12;6.25;;;4.10;;
16727;SDS011;8482;54.396;18.590;2022-09-13T17:14:39;5.43;;;4.20;;
16727;SDS011;8482;54.396;18.590;2022-09-13T17:17:14;5.40;;;3.70;;
16727;SDS011;8482;54.396;18.590;2022-09-13T17:19:41;5.55;;;3.72;;
16727;SDS011;8482;54.396;18.590;2022-09-13T17:22:09;6.72;;;3.80;;
16727;SDS011;8482;54.396;18.590;2022-09-13T17:24:35;5.47;;;3.88;;
16727;SDS011;8482;54.396;18.590;2022-09-13T17:27:03;5.60;;;3.40;;
16727;SDS011;8482;54.396;18.590;2022-09-13T17:29:31;6.40;;;4.10;;
16727;SDS011;8482;54.396;18.590;2022-09-13T17:31:59;5.80;;;3.35;;
16727;SDS011;8482;54.396;18.590;2022-09-13T17:34:27;5.85;;;3.45;;
16727;SDS011;8482;54.396;18.590;2022-09-13T17:36:54;5.95;;;3.78;;
16727;SDS011;8482;54.396;18.590;2022-09-13T17:39:21;5.85;;;3.60;;
16727;SDS011;8482;54.396;18.590;2022-09-13T17:41:47;6.15;;;3.70;;
16727;SDS011;8482;54.396;18.590;2022-09-13T17:44:13;6.05;;;3.45;;
16727;SDS011;8482;54.396;18.590;2022-09-13T17:46:40;5.32;;;3.60;;
16727;SDS011;8482;54.396;18.590;2022-09-13T17:49:06;5.00;;;2.97;;
16727;SDS011;8482;54.396;18.590;2022-09-13T17:51:32;4.82;;;3.00;;
16727;SDS011;8482;54.396;18.590;2022-09-13T17:54:05;5.13;;;3.30;;
16727;SDS011;8482;54.396;18.590;2022-09-13T17:56:36;5.00;;;3.10;;
16727;SDS011;8482;54.396;18.590;2022-09-13T17:59:06;5.50;;;3.30;;
16727;SDS011;8482;54.396;18.590;2022-09-13T18:01:39;4.70;;;3.30;;
16727;SDS011;8482;54.396;18.590;2022-09-13T18:04:08;5.47;;;3.53;;
16727;SDS011;8482;54.396;18.590;2022-09-13T18:06:35;6.07;;;3.17;;
16727;SDS011;8482;54.396;18.590;2022-09-13T18:09:04;5.95;;;3.63;;
16727;SDS011;8482;54.396;18.590;2022-09-13T18:11:31;5.30;;;3.55;;
16727;SDS011;8482;54.396;18.590;2022-09-13T18:13:57;5.30;;;3.10;;
16727;SDS011;8482;54.396;18.590;2022-09-13T18:16:24;5.78;;;3.50;;
16727;SDS011;8482;54.396;18.590;2022-09-13T18:18:51;5.43;;;3.22;;
16727;SDS011;8482;54.396;18.590;2022-09-13T18:21:18;5.28;;;3.13;;
16727;SDS011;8482;54.396;18.590;2022-09-13T18:23:48;5.60;;;3.40;;
16727;SDS011;8482;54.396;18.590;2022-09-13T18:26:17;6.55;;;3.85;;
16727;SDS011;8482;54.396;18.590;2022-09-13T18:28:56;5.22;;;3.10;;
16727;SDS011;8482;54.396;18.590;2022-09-13T18:31:35;5.50;;;3.42;;
16727;SDS011;8482;54.396;18.590;2022-09-13T18:34:03;5.65;;;3.45;;
16727;SDS011;8482;54.396;18.590;2022-09-13T18:36:34;5.60;;;3.22;;
16727;SDS011;8482;54.396;18.590;2022-09-13T18:39:01;5.60;;;3.55;;
16727;SDS011;8482;54.396;18.590;2022-09-13T18:41:30;6.35;;;3.75;;
16727;SDS011;8482;54.396;18.590;2022-09-13T18:44:05;6.25;;;3.83;;
16727;SDS011;8482;54.396;18.590;2022-09-13T18:46:34;6.82;;;3.80;;
16727;SDS011;8482;54.396;18.590;2022-09-13T18:49:00;7.43;;;4.28;;
16727;SDS011;8482;54.396;18.590;2022-09-13T18:51:31;6.45;;;4.07;;
16727;SDS011;8482;54.396;18.590;2022-09-13T18:53:59;5.97;;;3.50;;
16727;SDS011;8482;54.396;18.590;2022-09-13T18:56:27;6.57;;;3.88;;
16727;SDS011;8482;54.396;18.590;2022-09-13T18:58:54;7.10;;;4.25;;
16727;SDS011;8482;54.396;18.590;2022-09-13T19:01:25;7.03;;;4.50;;